Arthur Brusco — WDC3449 — position and weather

sailwx.info

Track history (hours):
 
Tides and Currents Weather Stations Pressure Air Temp Water Temp Dewpoint Dewpoint Depression Visibility Wind Speed Wind Dir Waves Ship Positions

Arthur Brusco

Owner: Brusco Tug & Barge, Inc, Longview, WA. More information available from US FCC via Universal Licensing System and Coast Guard Vessel Documentation Center.

Last reported at 2017-Aug-20 07:36 UTC. Time now 2017-Aug-20 11:39 UTC.
Position N 37°38' W 123°11'.

Length 35 m; draft 3.2 m.

Type: Other ship. MMSI: 271040404.

Date/timePositionNaut miles runAvg speedWind from/ knotsBaromVisibWave heightAir tempDewpointWater temp
2017-Aug-20 07:36N 37°38' W 123°11'1 6.8
2017-Aug-20 07:27N 37°38' W 123°10'3 6.5
2017-Aug-20 07:00N 37°38' W 123°06'4 6.4
2017-Aug-20 06:18N 37°38' W 123°01'13 7.0
2017-Aug-20 04:29N 37°44' W 122°46'6 6.7
2017-Aug-20 03:40N 37°46' W 122°40'1 6.6
2017-Aug-20 03:28N 37°46' W 122°38'3 5.8
2017-Aug-20 02:55N 37°47' W 122°34'2 5.5
2017-Aug-20 02:31N 37°48' W 122°32'3 5.2
2017-Aug-20 02:00N 37°49' W 122°29'3 5.8
2017-Aug-20 01:30N 37°50' W 122°25'3 6.4
2017-Aug-20 01:01N 37°48' W 122°22'1 2.9
2017-Aug-20 00:30N 37°49' W 122°20'1 2.7
2017-Aug-20 00:01N 37°49' W 122°19'0 0.0
2017-Aug-19 23:30N 37°49' W 122°19'0 0.0
2017-Aug-19 23:01N 37°49' W 122°19'0 0.0
2017-Aug-19 22:30N 37°49' W 122°19'0 0.0
2017-Aug-19 22:00N 37°49' W 122°19'0 0.0
2017-Aug-19 21:31N 37°49' W 122°19'0 1.0
2017-Aug-19 21:01N 37°49' W 122°19'0 0.5
2017-Aug-19 20:31N 37°49' W 122°20'1 1.3
2017-Aug-19 20:00N 37°49' W 122°19'0 0.0
2017-Aug-19 19:30N 37°49' W 122°19'0 0.0
2017-Aug-19 19:00N 37°49' W 122°19'0 0.6
2017-Aug-19 18:30N 37°49' W 122°19'0 0.0
2017-Aug-19 18:01N 37°49' W 122°19'0 0.0
2017-Aug-19 17:30N 37°49' W 122°19'0 0.0
2017-Aug-19 17:00N 37°49' W 122°19'0 0.0
2017-Aug-19 16:30N 37°49' W 122°19'0 0.4
2017-Aug-19 16:00N 37°49' W 122°19'3 5.1
2017-Aug-19 15:30N 37°47' W 122°21'3 5.2
2017-Aug-19 15:00N 37°49' W 122°24'10 9.6
2017-Aug-19 14:00N 37°46' W 122°35'14 8.8
2017-Aug-19 12:25N 37°41' W 122°52'4 9.6
2017-Aug-19 12:00N 37°39' W 122°56'6 9.3
2017-Aug-19 11:24N 37°38' W 123°03'4 9.5
2017-Aug-19 10:59N 37°38' W 123°08'13 9.4
2017-Aug-19 09:37N 37°39' W 123°24'110.0
2017-Aug-19 09:30N 37°39' W 123°26'3 5.2
2017-Aug-19 09:01N 37°39' W 123°29'12 7.7
2017-Aug-19 07:26N 37°39' W 123°13'4 8.8
2017-Aug-19 06:55N 37°39' W 123°08'4 8.9
2017-Aug-19 06:26N 37°38' W 123°02'4 8.5
2017-Aug-19 06:00N 37°39' W 122°58'7 9.0
2017-Aug-19 05:12N 37°43' W 122°50'3 8.6
2017-Aug-19 04:48N 37°44' W 122°46'3 8.7
2017-Aug-19 04:30N 37°45' W 122°43'4 8.1
2017-Aug-19 04:00N 37°46' W 122°38'4 7.4
2017-Aug-19 03:30N 37°47' W 122°34'3 6.1
2017-Aug-19 03:00N 37°49' W 122°30'2 5.0
2017-Aug-19 02:30N 37°50' W 122°27'3 6.1
2017-Aug-19 02:00N 37°50' W 122°23'2 3.3
2017-Aug-19 01:31N 37°50' W 122°21'0 0.1
2017-Aug-19 01:00N 37°50' W 122°21'0 0.1
2017-Aug-19 00:30N 37°50' W 122°21'2 3.2
2017-Aug-19 00:01N 37°49' W 122°20'0 0.1
2017-Aug-18 23:30N 37°49' W 122°20'0 0.0
2017-Aug-18 23:01N 37°49' W 122°20'0 0.0
2017-Aug-18 22:31N 37°49' W 122°20'0 0.0
2017-Aug-18 22:01N 37°49' W 122°20'0 0.0
2017-Aug-18 21:30N 37°49' W 122°20'0 0.0
2017-Aug-18 21:00N 37°49' W 122°20'0 0.0
2017-Aug-18 20:30N 37°49' W 122°20'1 2.0
2017-Aug-18 20:01N 37°49' W 122°18'0 0.0
2017-Aug-18 19:30N 37°49' W 122°18'0 0.8
2017-Aug-18 19:00N 37°49' W 122°19'1 2.6
2017-Aug-18 18:30N 37°48' W 122°20'1 2.1
2017-Aug-18 18:00N 37°48' W 122°21'4 8.9
2017-Aug-18 17:30N 37°49' W 122°26'4 8.7
2017-Aug-18 17:00N 37°48' W 122°31'510.3
2017-Aug-18 16:30N 37°46' W 122°38'7 7.9
2017-Aug-18 15:34N 37°43' W 122°46'0 5.5
2017-Aug-18 15:30N 37°43' W 122°47'7 9.3
2017-Aug-18 14:48N 37°40' W 122°54'7 9.0
2017-Aug-18 14:00N 37°38' W 123°03'6 9.2
2017-Aug-18 13:24N 37°38' W 123°10'4 9.2
2017-Aug-18 12:56N 37°39' W 123°15'10 9.3
2017-Aug-18 11:49N 37°39' W 123°28'0 0.6
2017-Aug-18 11:25N 37°40' W 123°28'4 4.8
2017-Aug-18 10:41N 37°39' W 123°24'1 5.8
2017-Aug-18 10:30N 37°39' W 123°23'3 6.2
2017-Aug-18 10:00N 37°39' W 123°19'4 7.2
2017-Aug-18 09:29N 37°39' W 123°14'3 7.3
2017-Aug-18 09:00N 37°38' W 123°10'4 7.3
2017-Aug-18 08:30N 37°38' W 123°05'4 7.2
2017-Aug-18 08:00N 37°38' W 123°01'4 7.7
2017-Aug-18 07:30N 37°39' W 122°56'4 7.8
2017-Aug-18 07:00N 37°41' W 122°52'4 7.5
2017-Aug-18 06:30N 37°43' W 122°48'5 7.1
2017-Aug-18 05:45N 37°46' W 122°42'2 6.7
2017-Aug-18 05:30N 37°46' W 122°40'4 6.8
2017-Aug-18 04:55N 37°47' W 122°35'3 7.2
2017-Aug-18 04:30N 37°48' W 122°31'3 6.0
2017-Aug-18 04:01N 37°49' W 122°28'3 5.8
2017-Aug-18 03:30N 37°49' W 122°24'3 6.0
2017-Aug-18 03:01N 37°48' W 122°21'1 1.7
2017-Aug-18 02:31N 37°49' W 122°20'1 2.3
2017-Aug-18 02:00N 37°49' W 122°19'0 0.0
2017-Aug-18 01:30N 37°49' W 122°19'0 0.0
2017-Aug-18 01:00N 37°49' W 122°19'0 0.0
2017-Aug-18 00:30N 37°49' W 122°19'1 2.1
2017-Aug-18 00:01N 37°49' W 122°20'1 2.8
2017-Aug-17 23:30N 37°49' W 122°21'1 2.6
2017-Aug-17 23:01N 37°49' W 122°20'0 0.1
2017-Aug-17 22:30N 37°49' W 122°20'0 0.4
2017-Aug-17 22:00N 37°49' W 122°20'2 3.4
2017-Aug-17 21:31N 37°50' W 122°22'1 2.4
2017-Aug-17 21:00N 37°50' W 122°23'4 7.6
2017-Aug-17 20:31N 37°49' W 122°28'3 5.7
2017-Aug-17 20:01N 37°48' W 122°31'4 7.9
2017-Aug-17 19:29N 37°46' W 122°36'4 9.3
2017-Aug-17 19:01N 37°45' W 122°41'4 7.8
2017-Aug-17 18:28N 37°44' W 122°46'710.8
2017-Aug-17 17:52N 37°41' W 122°54'410.6
2017-Aug-17 17:30N 37°39' W 122°58'610.3
2017-Aug-17 16:53N 37°38' W 123°06'510.3
2017-Aug-17 16:26N 37°39' W 123°12'810.2
2017-Aug-17 15:40N 37°39' W 123°22'510.6
2017-Aug-17 15:10N 37°39' W 123°28'11 7.6
2017-Aug-17 13:46N 37°38' W 123°15'3 8.6
2017-Aug-17 13:25N 37°38' W 123°11'3 8.6
2017-Aug-17 13:00N 37°38' W 123°07'5 8.5
2017-Aug-17 12:27N 37°38' W 123°01'15 8.7
2017-Aug-17 10:46N 37°45' W 122°44'4 8.2
2017-Aug-17 10:20N 37°46' W 122°40'4 9.3
2017-Aug-17 09:54N 37°47' W 122°35'410.2
2017-Aug-17 09:30N 37°49' W 122°30'5 9.5
2017-Aug-17 09:00N 37°50' W 122°25'4 7.6
2017-Aug-17 08:30N 37°49' W 122°20'0 0.4
2017-Aug-17 08:00N 37°49' W 122°20'2 4.2
2017-Aug-17 07:30N 37°50' W 122°22'2 3.0
2017-Aug-17 07:00N 37°50' W 122°24'3 6.7
2017-Aug-17 06:31N 37°49' W 122°28'3 5.6
2017-Aug-17 06:01N 37°48' W 122°31'3 6.5
2017-Aug-17 05:30N 37°47' W 122°35'4 7.5
2017-Aug-17 05:00N 37°45' W 122°39'5 8.3
2017-Aug-17 04:26N 37°44' W 122°45'8 8.5
2017-Aug-17 03:30N 37°40' W 122°54'510.2
2017-Aug-17 03:00N 37°38' W 122°60'710.3
2017-Aug-17 02:23N 37°38' W 123°08'15 7.5
2017-Aug-17 00:20N 37°39' W 123°27'6 6.6
2017-Aug-16 23:29N 37°39' W 123°20'4 6.6
2017-Aug-16 22:50N 37°39' W 123°14'2 6.4
2017-Aug-16 22:30N 37°39' W 123°12'3 6.3
2017-Aug-16 22:00N 37°38' W 123°08'4 6.5
2017-Aug-16 21:27N 37°38' W 123°03'20 6.6
2017-Aug-16 18:24N 37°46' W 122°40'4 6.7
2017-Aug-16 17:49N 37°47' W 122°35'2 7.3
2017-Aug-16 17:30N 37°48' W 122°33'4 7.8
2017-Aug-16 17:00N 37°49' W 122°28'3 6.8
2017-Aug-16 16:30N 37°49' W 122°24'3 5.9
2017-Aug-16 16:00N 37°49' W 122°20'0 0.4
2017-Aug-16 15:30N 37°49' W 122°20'2 3.2
2017-Aug-16 15:00N 37°50' W 122°21'0 0.1
2017-Aug-16 14:31N 37°50' W 122°21'0 0.0
2017-Aug-16 14:00N 37°50' W 122°21'0 0.0
2017-Aug-16 13:31N 37°50' W 122°21'0 0.0
2017-Aug-16 13:00N 37°50' W 122°21'0 0.0
2017-Aug-16 12:30N 37°50' W 122°21'0 0.0
2017-Aug-16 12:00N 37°50' W 122°21'1 1.9
2017-Aug-16 11:30N 37°50' W 122°23'3 6.6
2017-Aug-16 11:00N 37°49' W 122°26'3 6.1
2017-Aug-16 10:30N 37°48' W 122°30'4 8.5
2017-Aug-16 10:01N 37°47' W 122°35'4 8.6
2017-Aug-16 09:29N 37°45' W 122°40'11 8.3
2017-Aug-16 08:09N 37°41' W 122°53'210.2
2017-Aug-16 07:56N 37°40' W 122°56'4 9.7
2017-Aug-16 07:29N 37°38' W 123°01'16 4.9
2017-Aug-16 04:15N 37°39' W 123°21'4 8.5
2017-Aug-16 03:47N 37°39' W 123°16'3 8.7
2017-Aug-16 03:29N 37°38' W 123°12'4 8.5
2017-Aug-16 02:57N 37°38' W 123°07'6 8.3
2017-Aug-16 02:13N 37°38' W 122°59'12 8.6
2017-Aug-16 00:50N 37°44' W 122°46'4 8.5
2017-Aug-16 00:24N 37°45' W 122°42'6 8.0
2017-Aug-15 23:41N 37°47' W 122°35'1 7.3
2017-Aug-15 23:30N 37°47' W 122°34'3 6.9
2017-Aug-15 23:01N 37°49' W 122°30'3 6.2
2017-Aug-15 22:30N 37°50' W 122°26'3 6.8
2017-Aug-15 22:01N 37°50' W 122°22'0 0.4
2017-Aug-15 21:30N 37°50' W 122°21'0 0.1
2017-Aug-15 21:01N 37°50' W 122°21'0 0.1
2017-Aug-15 20:31N 37°50' W 122°21'3 6.8
2017-Aug-15 20:01N 37°52' W 122°24'3 5.1
2017-Aug-15 19:30N 37°54' W 122°22'1 0.7
2017-Aug-15 18:29N 37°55' W 122°22'0 0.0
2017-Aug-15 17:39N 37°55' W 122°22'0 0.0
2017-Aug-15 17:30N 37°55' W 122°22'0 0.0
2017-Aug-15 16:59N 37°55' W 122°22'0 0.0
2017-Aug-15 16:26N 37°55' W 122°22'0 0.0
2017-Aug-15 15:57N 37°55' W 122°22'0 0.0
2017-Aug-15 15:28N 37°55' W 122°22'0 0.0
2017-Aug-15 14:59N 37°55' W 122°22'0 0.0
2017-Aug-15 14:27N 37°55' W 122°22'0 0.0
2017-Aug-15 14:00N 37°55' W 122°22'2 3.6
2017-Aug-15 13:30N 37°54' W 122°24'3 6.6
2017-Aug-15 13:00N 37°51' W 122°23'2 4.3
2017-Aug-15 12:31N 37°50' W 122°21'0 0.0
2017-Aug-15 12:01N 37°50' W 122°21'0 0.0
2017-Aug-15 11:31N 37°50' W 122°21'0 0.0
2017-Aug-15 11:00N 37°50' W 122°21'0 0.0
2017-Aug-15 10:31N 37°50' W 122°21'0 0.0
2017-Aug-15 10:00N 37°50' W 122°21'0 0.0
2017-Aug-15 09:30N 37°50' W 122°21'0 0.1
2017-Aug-15 09:00N 37°50' W 122°21'0 0.1
2017-Aug-15 08:30N 37°50' W 122°21'0 0.0
2017-Aug-15 08:00N 37°50' W 122°21'0 0.8
2017-Aug-15 07:31N 37°49' W 122°22'2 3.5
2017-Aug-15 07:00N 37°49' W 122°20'1 1.3
2017-Aug-15 06:30N 37°49' W 122°20'2 3.0
2017-Aug-15 06:00N 37°50' W 122°21'0 0.0
2017-Aug-15 05:30N 37°50' W 122°21'0 0.0
2017-Aug-15 05:01N 37°50' W 122°21'0 0.0
2017-Aug-15 04:31N 37°50' W 122°21'0 0.0
2017-Aug-15 04:00N 37°50' W 122°21'0 0.0
2017-Aug-15 03:31N 37°50' W 122°21'0 0.0
2017-Aug-15 03:00N 37°50' W 122°21'0 0.0
2017-Aug-15 02:30N 37°50' W 122°21'0 0.1
2017-Aug-15 02:00N 37°50' W 122°21'0 0.0
2017-Aug-15 01:31N 37°50' W 122°21'0 0.0
2017-Aug-15 01:01N 37°50' W 122°21'1 2.0
2017-Aug-15 00:31N 37°50' W 122°23'4 8.5
2017-Aug-15 00:01N 37°49' W 122°28'5 9.9
2017-Aug-14 23:30N 37°47' W 122°33'28 3.4
2017-Aug-14 15:22N 37°38' W 123°07'2 6.0
2017-Aug-14 15:00N 37°38' W 123°04'25 6.3
2017-Aug-14 11:05N 37°47' W 122°35'1 6.3
2017-Aug-14 11:00N 37°47' W 122°34'3 5.6
2017-Aug-14 10:30N 37°48' W 122°31'2 4.9
2017-Aug-14 10:00N 37°49' W 122°28'3 5.6
2017-Aug-14 09:31N 37°50' W 122°25'3 5.6
2017-Aug-14 09:01N 37°48' W 122°22'2 4.0
2017-Aug-14 08:31N 37°49' W 122°20'0 0.1
2017-Aug-14 08:00N 37°49' W 122°20'0 0.1
2017-Aug-14 07:30N 37°49' W 122°20'1 1.7
2017-Aug-14 07:01N 37°49' W 122°19'0 0.1
2017-Aug-14 06:31N 37°49' W 122°19'0 0.0
2017-Aug-14 06:00N 37°49' W 122°19'2 4.9
2017-Aug-14 05:31N 37°49' W 122°22'0 0.9
2017-Aug-14 05:00N 37°50' W 122°21'0 0.0
2017-Aug-14 04:31N 37°50' W 122°21'0 0.0
2017-Aug-14 04:00N 37°50' W 122°21'1 2.6
2017-Aug-14 03:30N 37°49' W 122°21'2 4.0
2017-Aug-14 03:00N 37°49' W 122°19'0 0.0
2017-Aug-14 02:30N 37°49' W 122°19'0 0.0
2017-Aug-14 02:00N 37°49' W 122°19'0 0.0
2017-Aug-14 01:30N 37°49' W 122°19'0 0.0
2017-Aug-14 01:00N 37°49' W 122°19'0 0.0
2017-Aug-14 00:31N 37°49' W 122°19'0 0.0
2017-Aug-14 00:01N 37°49' W 122°19'0 0.0
2017-Aug-13 23:30N 37°49' W 122°19'0 0.0
2017-Aug-13 23:01N 37°49' W 122°19'0 0.0
2017-Aug-13 22:30N 37°49' W 122°19'0 0.0
2017-Aug-13 22:01N 37°49' W 122°19'0 0.0
2017-Aug-13 21:30N 37°49' W 122°19'0 0.6
2017-Aug-13 21:00N 37°49' W 122°19'0 0.0
2017-Aug-13 20:30N 37°49' W 122°19'0 0.0
2017-Aug-13 20:00N 37°49' W 122°19'0 0.0
2017-Aug-13 19:30N 37°49' W 122°19'0 0.0
2017-Aug-13 19:01N 37°49' W 122°19'1 1.2
2017-Aug-13 18:30N 37°49' W 122°19'0 0.4
2017-Aug-13 18:00N 37°49' W 122°20'0 0.0
2017-Aug-13 17:30N 37°49' W 122°20'1 1.7
2017-Aug-13 17:00N 37°49' W 122°19'2 4.7
2017-Aug-13 16:31N 37°50' W 122°21'0 0.4
2017-Aug-13 16:01N 37°50' W 122°22'4 7.6
2017-Aug-13 15:31N 37°49' W 122°26'3 6.1
2017-Aug-13 15:01N 37°48' W 122°30'4 8.6
2017-Aug-13 14:30N 37°47' W 122°35'5 9.1
2017-Aug-13 14:00N 37°45' W 122°40'4 7.1
2017-Aug-13 13:29N 37°44' W 122°45'9 9.8
2017-Aug-13 12:32N 37°40' W 122°56'0 9.8
2017-Aug-13 12:30N 37°39' W 122°56'5 9.3
2017-Aug-13 12:00N 37°38' W 123°01'5 9.8
2017-Aug-13 11:28N 37°38' W 123°08'4 8.9
2017-Aug-13 10:58N 37°38' W 123°13'10 8.4
2017-Aug-13 09:46N 37°39' W 123°26'2 7.4
2017-Aug-13 09:29N 37°39' W 123°29'3 5.3
2017-Aug-13 09:00N 37°39' W 123°26'4 7.2
2017-Aug-13 08:29N 37°39' W 123°21'6 7.3
2017-Aug-13 07:38N 37°38' W 123°13'2 6.9
2017-Aug-13 07:24N 37°38' W 123°11'3 7.1
2017-Aug-13 06:59N 37°38' W 123°07'3 7.2
2017-Aug-13 06:30N 37°38' W 123°03'4 7.6
2017-Aug-13 05:56N 37°38' W 122°58'9 8.5
2017-Aug-13 04:54N 37°43' W 122°48'5 8.2
2017-Aug-13 04:21N 37°45' W 122°43'3 7.6
2017-Aug-13 04:00N 37°46' W 122°40'4 8.7
2017-Aug-13 03:30N 37°47' W 122°35'510.4
2017-Aug-13 03:01N 37°49' W 122°29'5 9.7
2017-Aug-13 02:31N 37°48' W 122°23'2 4.6
2017-Aug-13 02:00N 37°49' W 122°20'1 2.6
2017-Aug-13 01:30N 37°48' W 122°21'1 2.9
2017-Aug-13 01:00N 37°48' W 122°23'4 7.9
2017-Aug-13 00:31N 37°49' W 122°27'3 6.6
2017-Aug-13 00:01N 37°48' W 122°31'5 9.2
2017-Aug-12 23:31N 37°46' W 122°37'11 8.2
2017-Aug-12 22:07N 37°42' W 122°50'210.0
2017-Aug-12 21:55N 37°41' W 122°52'4 9.6
2017-Aug-12 21:30N 37°39' W 122°57'5 9.6
2017-Aug-12 21:00N 37°38' W 123°03'5 9.8
2017-Aug-12 20:30N 37°38' W 123°09'5 9.6
2017-Aug-12 20:00N 37°38' W 123°15'6 9.9
2017-Aug-12 19:24N 37°39' W 123°22'4 9.8
2017-Aug-12 18:59N 37°39' W 123°27'2 2.7
2017-Aug-12 18:09N 37°39' W 123°25'1 5.9
2017-Aug-12 17:59N 37°39' W 123°23'3 6.0
2017-Aug-12 17:26N 37°39' W 123°19'4 6.1
2017-Aug-12 16:52N 37°38' W 123°15'2 6.3
2017-Aug-12 16:29N 37°38' W 123°12'3 6.0
2017-Aug-12 15:59N 37°38' W 123°08'3 6.0
2017-Aug-12 15:30N 37°38' W 123°04'3 6.2
2017-Aug-12 15:00N 37°38' W 123°00'4 6.2
2017-Aug-12 14:26N 37°39' W 122°56'3 6.6
2017-Aug-12 14:00N 37°41' W 122°53'5 6.7
2017-Aug-12 13:18N 37°43' W 122°48'2 6.5
2017-Aug-12 13:00N 37°44' W 122°46'4 6.0
2017-Aug-12 12:22N 37°46' W 122°42'2 5.6
2017-Aug-12 12:00N 37°46' W 122°39'3 6.1
2017-Aug-12 11:31N 37°47' W 122°36'3 6.2
2017-Aug-12 11:00N 37°48' W 122°32'3 6.1
2017-Aug-12 10:30N 37°49' W 122°28'3 6.1
2017-Aug-12 10:01N 37°50' W 122°25'3 6.1
2017-Aug-12 09:31N 37°48' W 122°21'2 3.4
2017-Aug-12 09:00N 37°49' W 122°19'0 0.4
2017-Aug-12 08:30N 37°49' W 122°19'1 1.1
2017-Aug-12 08:01N 37°49' W 122°19'0 0.2
2017-Aug-12 07:31N 37°49' W 122°19'0 0.0
2017-Aug-12 07:01N 37°49' W 122°19'0 0.0
2017-Aug-12 06:30N 37°49' W 122°19'0 0.0
2017-Aug-12 06:00N 37°49' W 122°19'0 0.0
2017-Aug-12 05:31N 37°49' W 122°19'0 0.0
2017-Aug-12 05:00N 37°49' W 122°19'0 0.0
2017-Aug-12 04:30N 37°49' W 122°19'0 0.0
2017-Aug-12 04:01N 37°49' W 122°19'0 0.2
2017-Aug-12 03:30N 37°49' W 122°19'0 0.0
2017-Aug-12 03:00N 37°49' W 122°19'0 0.0
2017-Aug-12 02:30N 37°49' W 122°19'0 0.0
2017-Aug-12 02:00N 37°49' W 122°19'0 0.0
2017-Aug-12 01:30N 37°49' W 122°19'0 0.0
2017-Aug-12 01:00N 37°49' W 122°19'0 0.0
2017-Aug-12 00:30N 37°49' W 122°19'0 0.0
2017-Aug-12 00:00N 37°49' W 122°19'0 0.0
2017-Aug-11 23:31N 37°49' W 122°19'0 0.0
2017-Aug-11 23:00N 37°49' W 122°19'0 0.0
2017-Aug-11 22:31N 37°49' W 122°19'0 0.0
2017-Aug-11 22:01N 37°49' W 122°19'0 0.0
2017-Aug-11 21:30N 37°49' W 122°19'0 0.0
2017-Aug-11 21:00N 37°49' W 122°19'0 0.1
2017-Aug-11 20:31N 37°49' W 122°18'0 0.1
2017-Aug-11 20:00N 37°49' W 122°19'0 0.0
2017-Aug-11 19:31N 37°49' W 122°19'0 0.0
2017-Aug-11 19:00N 37°49' W 122°19'0 0.0
2017-Aug-11 18:31N 37°49' W 122°19'2 4.3
2017-Aug-11 18:00N 37°48' W 122°21'1 1.5
2017-Aug-11 17:30N 37°48' W 122°22'5 9.6
2017-Aug-11 17:01N 37°49' W 122°28'4 7.0
2017-Aug-11 16:31N 37°48' W 122°32'4 8.2
2017-Aug-11 16:01N 37°46' W 122°37'4 7.4
2017-Aug-11 15:30N 37°45' W 122°41'4 7.2
2017-Aug-11 15:00N 37°44' W 122°45'9 8.4
2017-Aug-11 13:56N 37°40' W 122°55'4 9.2
2017-Aug-11 13:27N 37°38' W 123°00'4 9.3
2017-Aug-11 13:00N 37°38' W 123°06'1 0.1
2017-Aug-11 07:35N 37°38' W 123°05'20 6.5
2017-Aug-11 04:34N 37°45' W 122°42'1 6.0
2017-Aug-11 04:28N 37°46' W 122°41'5 6.3
2017-Aug-11 03:38N 37°47' W 122°35'1 7.2
2017-Aug-11 03:30N 37°47' W 122°34'4 7.7
2017-Aug-11 03:01N 37°49' W 122°29'4 7.8
2017-Aug-11 02:30N 37°50' W 122°24'3 7.0
2017-Aug-11 02:00N 37°49' W 122°20'1 1.5
2017-Aug-11 01:31N 37°49' W 122°19'2 3.7
2017-Aug-11 01:01N 37°50' W 122°21'0 0.6
2017-Aug-11 00:31N 37°50' W 122°21'0 0.1
2017-Aug-11 00:00N 37°50' W 122°21'0 0.0
2017-Aug-10 23:30N 37°50' W 122°21'0 0.0
2017-Aug-10 23:00N 37°50' W 122°21'0 0.0
2017-Aug-10 22:31N 37°50' W 122°21'0 0.1
2017-Aug-10 22:00N 37°50' W 122°21'0 0.2
2017-Aug-10 21:30N 37°50' W 122°21'0 0.1
2017-Aug-10 21:01N 37°50' W 122°21'0 0.0
2017-Aug-10 20:31N 37°50' W 122°21'0 0.0
2017-Aug-10 20:00N 37°50' W 122°21'0 0.0
2017-Aug-10 19:30N 37°50' W 122°21'0 0.0
2017-Aug-10 19:01N 37°50' W 122°21'3 5.9
2017-Aug-10 18:30N 37°48' W 122°19'0 0.0
2017-Aug-10 18:00N 37°48' W 122°19'3 5.9
2017-Aug-10 17:31N 37°50' W 122°21'0 0.1
2017-Aug-10 17:00N 37°50' W 122°21'0 0.1
2017-Aug-10 16:30N 37°50' W 122°21'0 0.1
2017-Aug-10 16:00N 37°50' W 122°21'0 0.0
2017-Aug-10 15:31N 37°50' W 122°21'0 0.0
2017-Aug-10 15:00N 37°50' W 122°21'0 0.1
2017-Aug-10 14:31N 37°50' W 122°21'0 0.0
2017-Aug-10 14:00N 37°50' W 122°21'0 0.0
2017-Aug-10 13:31N 37°50' W 122°21'0 0.0
2017-Aug-10 13:00N 37°50' W 122°21'0 0.7
2017-Aug-10 12:31N 37°50' W 122°22'3 5.2
2017-Aug-10 12:01N 37°49' W 122°25'3 5.6
2017-Aug-10 11:30N 37°49' W 122°28'3 5.6
2017-Aug-10 11:01N 37°48' W 122°32'4 7.6
2017-Aug-10 10:30N 37°46' W 122°36'6 6.5
2017-Aug-10 09:37N 37°44' W 122°43'2 9.1
2017-Aug-10 09:24N 37°43' W 122°45'  
Track history (hours):
 
Tides and Currents Weather Stations Pressure Air Temp Water Temp Dewpoint Dewpoint Depression Visibility Wind Speed Wind Dir Waves Ship Positions

Arthur Brusco

Owner: Brusco Tug & Barge, Inc, Longview, WA. More information available from US FCC via Universal Licensing System and Coast Guard Vessel Documentation Center.

Last reported at 2017-Aug-20 07:36 UTC. Time now 2017-Aug-20 11:39 UTC.
Position N 37°38' W 123°11'.

Length 35 m; draft 3.2 m.

Type: Other ship. MMSI: 271040404.

Date/timePositionNaut miles runAvg speedWind from/ knotsBaromVisibWave heightAir tempDewpointWater temp
2017-Aug-20 07:36N 37°38' W 123°11'1 6.8
2017-Aug-20 07:27N 37°38' W 123°10'3 6.5
2017-Aug-20 07:00N 37°38' W 123°06'4 6.4
2017-Aug-20 06:18N 37°38' W 123°01'13 7.0
2017-Aug-20 04:29N 37°44' W 122°46'6 6.7
2017-Aug-20 03:40N 37°46' W 122°40'1 6.6
2017-Aug-20 03:28N 37°46' W 122°38'3 5.8
2017-Aug-20 02:55N 37°47' W 122°34'2 5.5
2017-Aug-20 02:31N 37°48' W 122°32'3 5.2
2017-Aug-20 02:00N 37°49' W 122°29'3 5.8
2017-Aug-20 01:30N 37°50' W 122°25'3 6.4
2017-Aug-20 01:01N 37°48' W 122°22'1 2.9
2017-Aug-20 00:30N 37°49' W 122°20'1 2.7
2017-Aug-20 00:01N 37°49' W 122°19'0 0.0
2017-Aug-19 23:30N 37°49' W 122°19'0 0.0
2017-Aug-19 23:01N 37°49' W 122°19'0 0.0
2017-Aug-19 22:30N 37°49' W 122°19'0 0.0
2017-Aug-19 22:00N 37°49' W 122°19'0 0.0
2017-Aug-19 21:31N 37°49' W 122°19'0 1.0
2017-Aug-19 21:01N 37°49' W 122°19'0 0.5
2017-Aug-19 20:31N 37°49' W 122°20'1 1.3
2017-Aug-19 20:00N 37°49' W 122°19'0 0.0
2017-Aug-19 19:30N 37°49' W 122°19'0 0.0
2017-Aug-19 19:00N 37°49' W 122°19'0 0.6
2017-Aug-19 18:30N 37°49' W 122°19'0 0.0
2017-Aug-19 18:01N 37°49' W 122°19'0 0.0
2017-Aug-19 17:30N 37°49' W 122°19'0 0.0
2017-Aug-19 17:00N 37°49' W 122°19'0 0.0
2017-Aug-19 16:30N 37°49' W 122°19'0 0.4
2017-Aug-19 16:00N 37°49' W 122°19'3 5.1
2017-Aug-19 15:30N 37°47' W 122°21'3 5.2
2017-Aug-19 15:00N 37°49' W 122°24'10 9.6
2017-Aug-19 14:00N 37°46' W 122°35'14 8.8
2017-Aug-19 12:25N 37°41' W 122°52'4 9.6
2017-Aug-19 12:00N 37°39' W 122°56'6 9.3
2017-Aug-19 11:24N 37°38' W 123°03'4 9.5
2017-Aug-19 10:59N 37°38' W 123°08'13 9.4
2017-Aug-19 09:37N 37°39' W 123°24'110.0
2017-Aug-19 09:30N 37°39' W 123°26'3 5.2
2017-Aug-19 09:01N 37°39' W 123°29'12 7.7
2017-Aug-19 07:26N 37°39' W 123°13'4 8.8
2017-Aug-19 06:55N 37°39' W 123°08'4 8.9
2017-Aug-19 06:26N 37°38' W 123°02'4 8.5
2017-Aug-19 06:00N 37°39' W 122°58'7 9.0
2017-Aug-19 05:12N 37°43' W 122°50'3 8.6
2017-Aug-19 04:48N 37°44' W 122°46'3 8.7
2017-Aug-19 04:30N 37°45' W 122°43'4 8.1
2017-Aug-19 04:00N 37°46' W 122°38'4 7.4
2017-Aug-19 03:30N 37°47' W 122°34'3 6.1
2017-Aug-19 03:00N 37°49' W 122°30'2 5.0
2017-Aug-19 02:30N 37°50' W 122°27'3 6.1
2017-Aug-19 02:00N 37°50' W 122°23'2 3.3
2017-Aug-19 01:31N 37°50' W 122°21'0 0.1
2017-Aug-19 01:00N 37°50' W 122°21'0 0.1
2017-Aug-19 00:30N 37°50' W 122°21'2 3.2
2017-Aug-19 00:01N 37°49' W 122°20'0 0.1
2017-Aug-18 23:30N 37°49' W 122°20'0 0.0
2017-Aug-18 23:01N 37°49' W 122°20'0 0.0
2017-Aug-18 22:31N 37°49' W 122°20'0 0.0
2017-Aug-18 22:01N 37°49' W 122°20'0 0.0
2017-Aug-18 21:30N 37°49' W 122°20'0 0.0
2017-Aug-18 21:00N 37°49' W 122°20'0 0.0
2017-Aug-18 20:30N 37°49' W 122°20'1 2.0
2017-Aug-18 20:01N 37°49' W 122°18'0 0.0
2017-Aug-18 19:30N 37°49' W 122°18'0 0.8
2017-Aug-18 19:00N 37°49' W 122°19'1 2.6
2017-Aug-18 18:30N 37°48' W 122°20'1 2.1
2017-Aug-18 18:00N 37°48' W 122°21'4 8.9
2017-Aug-18 17:30N 37°49' W 122°26'4 8.7
2017-Aug-18 17:00N 37°48' W 122°31'510.3
2017-Aug-18 16:30N 37°46' W 122°38'7 7.9
2017-Aug-18 15:34N 37°43' W 122°46'0 5.5
2017-Aug-18 15:30N 37°43' W 122°47'7 9.3
2017-Aug-18 14:48N 37°40' W 122°54'7 9.0
2017-Aug-18 14:00N 37°38' W 123°03'6 9.2
2017-Aug-18 13:24N 37°38' W 123°10'4 9.2
2017-Aug-18 12:56N 37°39' W 123°15'10 9.3
2017-Aug-18 11:49N 37°39' W 123°28'0 0.6
2017-Aug-18 11:25N 37°40' W 123°28'4 4.8
2017-Aug-18 10:41N 37°39' W 123°24'1 5.8
2017-Aug-18 10:30N 37°39' W 123°23'3 6.2
2017-Aug-18 10:00N 37°39' W 123°19'4 7.2
2017-Aug-18 09:29N 37°39' W 123°14'3 7.3
2017-Aug-18 09:00N 37°38' W 123°10'4 7.3
2017-Aug-18 08:30N 37°38' W 123°05'4 7.2
2017-Aug-18 08:00N 37°38' W 123°01'4 7.7
2017-Aug-18 07:30N 37°39' W 122°56'4 7.8
2017-Aug-18 07:00N 37°41' W 122°52'4 7.5
2017-Aug-18 06:30N 37°43' W 122°48'5 7.1
2017-Aug-18 05:45N 37°46' W 122°42'2 6.7
2017-Aug-18 05:30N 37°46' W 122°40'4 6.8
2017-Aug-18 04:55N 37°47' W 122°35'3 7.2
2017-Aug-18 04:30N 37°48' W 122°31'3 6.0
2017-Aug-18 04:01N 37°49' W 122°28'3 5.8
2017-Aug-18 03:30N 37°49' W 122°24'3 6.0
2017-Aug-18 03:01N 37°48' W 122°21'1 1.7
2017-Aug-18 02:31N 37°49' W 122°20'1 2.3
2017-Aug-18 02:00N 37°49' W 122°19'0 0.0
2017-Aug-18 01:30N 37°49' W 122°19'0 0.0
2017-Aug-18 01:00N 37°49' W 122°19'0 0.0
2017-Aug-18 00:30N 37°49' W 122°19'1 2.1
2017-Aug-18 00:01N 37°49' W 122°20'1 2.8
2017-Aug-17 23:30N 37°49' W 122°21'1 2.6
2017-Aug-17 23:01N 37°49' W 122°20'0 0.1
2017-Aug-17 22:30N 37°49' W 122°20'0 0.4
2017-Aug-17 22:00N 37°49' W 122°20'2 3.4
2017-Aug-17 21:31N 37°50' W 122°22'1 2.4
2017-Aug-17 21:00N 37°50' W 122°23'4 7.6
2017-Aug-17 20:31N 37°49' W 122°28'3 5.7
2017-Aug-17 20:01N 37°48' W 122°31'4 7.9
2017-Aug-17 19:29N 37°46' W 122°36'4 9.3
2017-Aug-17 19:01N 37°45' W 122°41'4 7.8
2017-Aug-17 18:28N 37°44' W 122°46'710.8
2017-Aug-17 17:52N 37°41' W 122°54'410.6
2017-Aug-17 17:30N 37°39' W 122°58'610.3
2017-Aug-17 16:53N 37°38' W 123°06'510.3
2017-Aug-17 16:26N 37°39' W 123°12'810.2
2017-Aug-17 15:40N 37°39' W 123°22'510.6
2017-Aug-17 15:10N 37°39' W 123°28'11 7.6
2017-Aug-17 13:46N 37°38' W 123°15'3 8.6
2017-Aug-17 13:25N 37°38' W 123°11'3 8.6
2017-Aug-17 13:00N 37°38' W 123°07'5 8.5
2017-Aug-17 12:27N 37°38' W 123°01'15 8.7
2017-Aug-17 10:46N 37°45' W 122°44'4 8.2
2017-Aug-17 10:20N 37°46' W 122°40'4 9.3
2017-Aug-17 09:54N 37°47' W 122°35'410.2
2017-Aug-17 09:30N 37°49' W 122°30'5 9.5
2017-Aug-17 09:00N 37°50' W 122°25'4 7.6
2017-Aug-17 08:30N 37°49' W 122°20'0 0.4
2017-Aug-17 08:00N 37°49' W 122°20'2 4.2
2017-Aug-17 07:30N 37°50' W 122°22'2 3.0
2017-Aug-17 07:00N 37°50' W 122°24'3 6.7
2017-Aug-17 06:31N 37°49' W 122°28'3 5.6
2017-Aug-17 06:01N 37°48' W 122°31'3 6.5
2017-Aug-17 05:30N 37°47' W 122°35'4 7.5
2017-Aug-17 05:00N 37°45' W 122°39'5 8.3
2017-Aug-17 04:26N 37°44' W 122°45'8 8.5
2017-Aug-17 03:30N 37°40' W 122°54'510.2
2017-Aug-17 03:00N 37°38' W 122°60'710.3
2017-Aug-17 02:23N 37°38' W 123°08'15 7.5
2017-Aug-17 00:20N 37°39' W 123°27'6 6.6
2017-Aug-16 23:29N 37°39' W 123°20'4 6.6
2017-Aug-16 22:50N 37°39' W 123°14'2 6.4
2017-Aug-16 22:30N 37°39' W 123°12'3 6.3
2017-Aug-16 22:00N 37°38' W 123°08'4 6.5
2017-Aug-16 21:27N 37°38' W 123°03'20 6.6
2017-Aug-16 18:24N 37°46' W 122°40'4 6.7
2017-Aug-16 17:49N 37°47' W 122°35'2 7.3
2017-Aug-16 17:30N 37°48' W 122°33'4 7.8
2017-Aug-16 17:00N 37°49' W 122°28'3 6.8
2017-Aug-16 16:30N 37°49' W 122°24'3 5.9
2017-Aug-16 16:00N 37°49' W 122°20'0 0.4
2017-Aug-16 15:30N 37°49' W 122°20'2 3.2
2017-Aug-16 15:00N 37°50' W 122°21'0 0.1
2017-Aug-16 14:31N 37°50' W 122°21'0 0.0
2017-Aug-16 14:00N 37°50' W 122°21'0 0.0
2017-Aug-16 13:31N 37°50' W 122°21'0 0.0
2017-Aug-16 13:00N 37°50' W 122°21'0 0.0
2017-Aug-16 12:30N 37°50' W 122°21'0 0.0
2017-Aug-16 12:00N 37°50' W 122°21'1 1.9
2017-Aug-16 11:30N 37°50' W 122°23'3 6.6
2017-Aug-16 11:00N 37°49' W 122°26'3 6.1
2017-Aug-16 10:30N 37°48' W 122°30'4 8.5
2017-Aug-16 10:01N 37°47' W 122°35'4 8.6
2017-Aug-16 09:29N 37°45' W 122°40'11 8.3
2017-Aug-16 08:09N 37°41' W 122°53'210.2
2017-Aug-16 07:56N 37°40' W 122°56'4 9.7
2017-Aug-16 07:29N 37°38' W 123°01'16 4.9
2017-Aug-16 04:15N 37°39' W 123°21'4 8.5
2017-Aug-16 03:47N 37°39' W 123°16'3 8.7
2017-Aug-16 03:29N 37°38' W 123°12'4 8.5
2017-Aug-16 02:57N 37°38' W 123°07'6 8.3
2017-Aug-16 02:13N 37°38' W 122°59'12 8.6
2017-Aug-16 00:50N 37°44' W 122°46'4 8.5
2017-Aug-16 00:24N 37°45' W 122°42'6 8.0
2017-Aug-15 23:41N 37°47' W 122°35'1 7.3
2017-Aug-15 23:30N 37°47' W 122°34'3 6.9
2017-Aug-15 23:01N 37°49' W 122°30'3 6.2
2017-Aug-15 22:30N 37°50' W 122°26'3 6.8
2017-Aug-15 22:01N 37°50' W 122°22'0 0.4
2017-Aug-15 21:30N 37°50' W 122°21'0 0.1
2017-Aug-15 21:01N 37°50' W 122°21'0 0.1
2017-Aug-15 20:31N 37°50' W 122°21'3 6.8
2017-Aug-15 20:01N 37°52' W 122°24'3 5.1
2017-Aug-15 19:30N 37°54' W 122°22'1 0.7
2017-Aug-15 18:29N 37°55' W 122°22'0 0.0
2017-Aug-15 17:39N 37°55' W 122°22'0 0.0
2017-Aug-15 17:30N 37°55' W 122°22'0 0.0
2017-Aug-15 16:59N 37°55' W 122°22'0 0.0
2017-Aug-15 16:26N 37°55' W 122°22'0 0.0
2017-Aug-15 15:57N 37°55' W 122°22'0 0.0
2017-Aug-15 15:28N 37°55' W 122°22'0 0.0
2017-Aug-15 14:59N 37°55' W 122°22'0 0.0
2017-Aug-15 14:27N 37°55' W 122°22'0 0.0
2017-Aug-15 14:00N 37°55' W 122°22'2 3.6
2017-Aug-15 13:30N 37°54' W 122°24'3 6.6
2017-Aug-15 13:00N 37°51' W 122°23'2 4.3
2017-Aug-15 12:31N 37°50' W 122°21'0 0.0
2017-Aug-15 12:01N 37°50' W 122°21'0 0.0
2017-Aug-15 11:31N 37°50' W 122°21'0 0.0
2017-Aug-15 11:00N 37°50' W 122°21'0 0.0
2017-Aug-15 10:31N 37°50' W 122°21'0 0.0
2017-Aug-15 10:00N 37°50' W 122°21'0 0.0
2017-Aug-15 09:30N 37°50' W 122°21'0 0.1
2017-Aug-15 09:00N 37°50' W 122°21'0 0.1
2017-Aug-15 08:30N 37°50' W 122°21'0 0.0
2017-Aug-15 08:00N 37°50' W 122°21'0 0.8
2017-Aug-15 07:31N 37°49' W 122°22'2 3.5
2017-Aug-15 07:00N 37°49' W 122°20'1 1.3
2017-Aug-15 06:30N 37°49' W 122°20'2 3.0
2017-Aug-15 06:00N 37°50' W 122°21'0 0.0
2017-Aug-15 05:30N 37°50' W 122°21'0 0.0
2017-Aug-15 05:01N 37°50' W 122°21'0 0.0
2017-Aug-15 04:31N 37°50' W 122°21'0 0.0
2017-Aug-15 04:00N 37°50' W 122°21'0 0.0
2017-Aug-15 03:31N 37°50' W 122°21'0 0.0
2017-Aug-15 03:00N 37°50' W 122°21'0 0.0
2017-Aug-15 02:30N 37°50' W 122°21'0 0.1
2017-Aug-15 02:00N 37°50' W 122°21'0 0.0
2017-Aug-15 01:31N 37°50' W 122°21'0 0.0
2017-Aug-15 01:01N 37°50' W 122°21'1 2.0
2017-Aug-15 00:31N 37°50' W 122°23'4 8.5
2017-Aug-15 00:01N 37°49' W 122°28'5 9.9
2017-Aug-14 23:30N 37°47' W 122°33'28 3.4
2017-Aug-14 15:22N 37°38' W 123°07'2 6.0
2017-Aug-14 15:00N 37°38' W 123°04'25 6.3
2017-Aug-14 11:05N 37°47' W 122°35'1 6.3
2017-Aug-14 11:00N 37°47' W 122°34'3 5.6
2017-Aug-14 10:30N 37°48' W 122°31'2 4.9
2017-Aug-14 10:00N 37°49' W 122°28'3 5.6
2017-Aug-14 09:31N 37°50' W 122°25'3 5.6
2017-Aug-14 09:01N 37°48' W 122°22'2 4.0
2017-Aug-14 08:31N 37°49' W 122°20'0 0.1
2017-Aug-14 08:00N 37°49' W 122°20'0 0.1
2017-Aug-14 07:30N 37°49' W 122°20'1 1.7
2017-Aug-14 07:01N 37°49' W 122°19'0 0.1
2017-Aug-14 06:31N 37°49' W 122°19'0 0.0
2017-Aug-14 06:00N 37°49' W 122°19'2 4.9
2017-Aug-14 05:31N 37°49' W 122°22'0 0.9
2017-Aug-14 05:00N 37°50' W 122°21'0 0.0
2017-Aug-14 04:31N 37°50' W 122°21'0 0.0
2017-Aug-14 04:00N 37°50' W 122°21'1 2.6
2017-Aug-14 03:30N 37°49' W 122°21'2 4.0
2017-Aug-14 03:00N 37°49' W 122°19'0 0.0
2017-Aug-14 02:30N 37°49' W 122°19'0 0.0
2017-Aug-14 02:00N 37°49' W 122°19'0 0.0
2017-Aug-14 01:30N 37°49' W 122°19'0 0.0
2017-Aug-14 01:00N 37°49' W 122°19'0 0.0
2017-Aug-14 00:31N 37°49' W 122°19'0 0.0
2017-Aug-14 00:01N 37°49' W 122°19'0 0.0
2017-Aug-13 23:30N 37°49' W 122°19'0 0.0
2017-Aug-13 23:01N 37°49' W 122°19'0 0.0
2017-Aug-13 22:30N 37°49' W 122°19'0 0.0
2017-Aug-13 22:01N 37°49' W 122°19'0 0.0
2017-Aug-13 21:30N 37°49' W 122°19'0 0.6
2017-Aug-13 21:00N 37°49' W 122°19'0 0.0
2017-Aug-13 20:30N 37°49' W 122°19'0 0.0
2017-Aug-13 20:00N 37°49' W 122°19'0 0.0
2017-Aug-13 19:30N 37°49' W 122°19'0 0.0
2017-Aug-13 19:01N 37°49' W 122°19'1 1.2
2017-Aug-13 18:30N 37°49' W 122°19'0 0.4
2017-Aug-13 18:00N 37°49' W 122°20'0 0.0
2017-Aug-13 17:30N 37°49' W 122°20'1 1.7
2017-Aug-13 17:00N 37°49' W 122°19'2 4.7
2017-Aug-13 16:31N 37°50' W 122°21'0 0.4
2017-Aug-13 16:01N 37°50' W 122°22'4 7.6
2017-Aug-13 15:31N 37°49' W 122°26'3 6.1
2017-Aug-13 15:01N 37°48' W 122°30'4 8.6
2017-Aug-13 14:30N 37°47' W 122°35'5 9.1
2017-Aug-13 14:00N 37°45' W 122°40'4 7.1
2017-Aug-13 13:29N 37°44' W 122°45'9 9.8
2017-Aug-13 12:32N 37°40' W 122°56'0 9.8
2017-Aug-13 12:30N 37°39' W 122°56'5 9.3
2017-Aug-13 12:00N 37°38' W 123°01'5 9.8
2017-Aug-13 11:28N 37°38' W 123°08'4 8.9
2017-Aug-13 10:58N 37°38' W 123°13'10 8.4
2017-Aug-13 09:46N 37°39' W 123°26'2 7.4
2017-Aug-13 09:29N 37°39' W 123°29'3 5.3
2017-Aug-13 09:00N 37°39' W 123°26'4 7.2
2017-Aug-13 08:29N 37°39' W 123°21'6 7.3
2017-Aug-13 07:38N 37°38' W 123°13'2 6.9
2017-Aug-13 07:24N 37°38' W 123°11'3 7.1
2017-Aug-13 06:59N 37°38' W 123°07'3 7.2
2017-Aug-13 06:30N 37°38' W 123°03'4 7.6
2017-Aug-13 05:56N 37°38' W 122°58'9 8.5
2017-Aug-13 04:54N 37°43' W 122°48'5 8.2
2017-Aug-13 04:21N 37°45' W 122°43'3 7.6
2017-Aug-13 04:00N 37°46' W 122°40'4 8.7
2017-Aug-13 03:30N 37°47' W 122°35'510.4
2017-Aug-13 03:01N 37°49' W 122°29'5 9.7
2017-Aug-13 02:31N 37°48' W 122°23'2 4.6
2017-Aug-13 02:00N 37°49' W 122°20'1 2.6
2017-Aug-13 01:30N 37°48' W 122°21'1 2.9
2017-Aug-13 01:00N 37°48' W 122°23'4 7.9
2017-Aug-13 00:31N 37°49' W 122°27'3 6.6
2017-Aug-13 00:01N 37°48' W 122°31'5 9.2
2017-Aug-12 23:31N 37°46' W 122°37'11 8.2
2017-Aug-12 22:07N 37°42' W 122°50'210.0
2017-Aug-12 21:55N 37°41' W 122°52'4 9.6
2017-Aug-12 21:30N 37°39' W 122°57'5 9.6
2017-Aug-12 21:00N 37°38' W 123°03'5 9.8
2017-Aug-12 20:30N 37°38' W 123°09'5 9.6
2017-Aug-12 20:00N 37°38' W 123°15'6 9.9
2017-Aug-12 19:24N 37°39' W 123°22'4 9.8
2017-Aug-12 18:59N 37°39' W 123°27'2 2.7
2017-Aug-12 18:09N 37°39' W 123°25'1 5.9
2017-Aug-12 17:59N 37°39' W 123°23'3 6.0
2017-Aug-12 17:26N 37°39' W 123°19'4 6.1
2017-Aug-12 16:52N 37°38' W 123°15'2 6.3
2017-Aug-12 16:29N 37°38' W 123°12'3 6.0
2017-Aug-12 15:59N 37°38' W 123°08'3 6.0
2017-Aug-12 15:30N 37°38' W 123°04'3 6.2
2017-Aug-12 15:00N 37°38' W 123°00'4 6.2
2017-Aug-12 14:26N 37°39' W 122°56'3 6.6
2017-Aug-12 14:00N 37°41' W 122°53'5 6.7
2017-Aug-12 13:18N 37°43' W 122°48'2 6.5
2017-Aug-12 13:00N 37°44' W 122°46'4 6.0
2017-Aug-12 12:22N 37°46' W 122°42'2 5.6
2017-Aug-12 12:00N 37°46' W 122°39'3 6.1
2017-Aug-12 11:31N 37°47' W 122°36'3 6.2
2017-Aug-12 11:00N 37°48' W 122°32'3 6.1
2017-Aug-12 10:30N 37°49' W 122°28'3 6.1
2017-Aug-12 10:01N 37°50' W 122°25'3 6.1
2017-Aug-12 09:31N 37°48' W 122°21'2 3.4
2017-Aug-12 09:00N 37°49' W 122°19'0 0.4
2017-Aug-12 08:30N 37°49' W 122°19'1 1.1
2017-Aug-12 08:01N 37°49' W 122°19'0 0.2
2017-Aug-12 07:31N 37°49' W 122°19'0 0.0
2017-Aug-12 07:01N 37°49' W 122°19'0 0.0
2017-Aug-12 06:30N 37°49' W 122°19'0 0.0
2017-Aug-12 06:00N 37°49' W 122°19'0 0.0
2017-Aug-12 05:31N 37°49' W 122°19'0 0.0
2017-Aug-12 05:00N 37°49' W 122°19'0 0.0
2017-Aug-12 04:30N 37°49' W 122°19'0 0.0
2017-Aug-12 04:01N 37°49' W 122°19'0 0.2
2017-Aug-12 03:30N 37°49' W 122°19'0 0.0
2017-Aug-12 03:00N 37°49' W 122°19'0 0.0
2017-Aug-12 02:30N 37°49' W 122°19'0 0.0
2017-Aug-12 02:00N 37°49' W 122°19'0 0.0
2017-Aug-12 01:30N 37°49' W 122°19'0 0.0
2017-Aug-12 01:00N 37°49' W 122°19'0 0.0
2017-Aug-12 00:30N 37°49' W 122°19'0 0.0
2017-Aug-12 00:00N 37°49' W 122°19'0 0.0
2017-Aug-11 23:31N 37°49' W 122°19'0 0.0
2017-Aug-11 23:00N 37°49' W 122°19'0 0.0
2017-Aug-11 22:31N 37°49' W 122°19'0 0.0
2017-Aug-11 22:01N 37°49' W 122°19'0 0.0
2017-Aug-11 21:30N 37°49' W 122°19'0 0.0
2017-Aug-11 21:00N 37°49' W 122°19'0 0.1
2017-Aug-11 20:31N 37°49' W 122°18'0 0.1
2017-Aug-11 20:00N 37°49' W 122°19'0 0.0
2017-Aug-11 19:31N 37°49' W 122°19'0 0.0
2017-Aug-11 19:00N 37°49' W 122°19'0 0.0
2017-Aug-11 18:31N 37°49' W 122°19'2 4.3
2017-Aug-11 18:00N 37°48' W 122°21'1 1.5
2017-Aug-11 17:30N 37°48' W 122°22'5 9.6
2017-Aug-11 17:01N 37°49' W 122°28'4 7.0
2017-Aug-11 16:31N 37°48' W 122°32'4 8.2
2017-Aug-11 16:01N 37°46' W 122°37'4 7.4
2017-Aug-11 15:30N 37°45' W 122°41'4 7.2
2017-Aug-11 15:00N 37°44' W 122°45'9 8.4
2017-Aug-11 13:56N 37°40' W 122°55'4 9.2
2017-Aug-11 13:27N 37°38' W 123°00'4 9.3
2017-Aug-11 13:00N 37°38' W 123°06'1 0.1
2017-Aug-11 07:35N 37°38' W 123°05'20 6.5
2017-Aug-11 04:34N 37°45' W 122°42'1 6.0
2017-Aug-11 04:28N 37°46' W 122°41'5 6.3
2017-Aug-11 03:38N 37°47' W 122°35'1 7.2
2017-Aug-11 03:30N 37°47' W 122°34'4 7.7
2017-Aug-11 03:01N 37°49' W 122°29'4 7.8
2017-Aug-11 02:30N 37°50' W 122°24'3 7.0
2017-Aug-11 02:00N 37°49' W 122°20'1 1.5
2017-Aug-11 01:31N 37°49' W 122°19'2 3.7
2017-Aug-11 01:01N 37°50' W 122°21'0 0.6
2017-Aug-11 00:31N 37°50' W 122°21'0 0.1
2017-Aug-11 00:00N 37°50' W 122°21'0 0.0
2017-Aug-10 23:30N 37°50' W 122°21'0 0.0
2017-Aug-10 23:00N 37°50' W 122°21'0 0.0
2017-Aug-10 22:31N 37°50' W 122°21'0 0.1
2017-Aug-10 22:00N 37°50' W 122°21'0 0.2
2017-Aug-10 21:30N 37°50' W 122°21'0 0.1
2017-Aug-10 21:01N 37°50' W 122°21'0 0.0
2017-Aug-10 20:31N 37°50' W 122°21'0 0.0
2017-Aug-10 20:00N 37°50' W 122°21'0 0.0
2017-Aug-10 19:30N 37°50' W 122°21'0 0.0
2017-Aug-10 19:01N 37°50' W 122°21'3 5.9
2017-Aug-10 18:30N 37°48' W 122°19'0 0.0
2017-Aug-10 18:00N 37°48' W 122°19'3 5.9
2017-Aug-10 17:31N 37°50' W 122°21'0 0.1
2017-Aug-10 17:00N 37°50' W 122°21'0 0.1
2017-Aug-10 16:30N 37°50' W 122°21'0 0.1
2017-Aug-10 16:00N 37°50' W 122°21'0 0.0
2017-Aug-10 15:31N 37°50' W 122°21'0 0.0
2017-Aug-10 15:00N 37°50' W 122°21'0 0.1
2017-Aug-10 14:31N 37°50' W 122°21'0 0.0
2017-Aug-10 14:00N 37°50' W 122°21'0 0.0
2017-Aug-10 13:31N 37°50' W 122°21'0 0.0
2017-Aug-10 13:00N 37°50' W 122°21'0 0.7
2017-Aug-10 12:31N 37°50' W 122°22'3 5.2
2017-Aug-10 12:01N 37°49' W 122°25'3 5.6
2017-Aug-10 11:30N 37°49' W 122°28'3 5.6
2017-Aug-10 11:01N 37°48' W 122°32'4 7.6
2017-Aug-10 10:30N 37°46' W 122°36'6 6.5
2017-Aug-10 09:37N 37°44' W 122°43'2 9.1
2017-Aug-10 09:24N 37°43' W 122°45'  

Dump ship's entire track history